sensor_id;sensor_type;location;lat;lon;timestamp;temperature;humidity
27188;DHT22;14708;50.872;5.306;2023-08-31T00:02:02;22.00;58.80
27188;DHT22;14708;50.872;5.306;2023-08-31T00:04:29;22.00;58.80
27188;DHT22;14708;50.872;5.306;2023-08-31T00:06:55;22.00;58.80
27188;DHT22;14708;50.872;5.306;2023-08-31T00:09:23;22.00;58.80
27188;DHT22;14708;50.872;5.306;2023-08-31T00:11:49;22.00;59.20
27188;DHT22;14708;50.872;5.306;2023-08-31T00:14:15;22.00;59.00
27188;DHT22;14708;50.872;5.306;2023-08-31T00:16:41;22.00;58.90
27188;DHT22;14708;50.872;5.306;2023-08-31T00:19:06;22.00;58.90
27188;DHT22;14708;50.872;5.306;2023-08-31T00:21:32;22.00;59.00
27188;DHT22;14708;50.872;5.306;2023-08-31T00:23:58;21.90;58.90
27188;DHT22;14708;50.872;5.306;2023-08-31T00:26:24;22.00;58.70
27188;DHT22;14708;50.872;5.306;2023-08-31T00:28:50;22.00;58.80
27188;DHT22;14708;50.872;5.306;2023-08-31T00:31:16;22.00;59.00
27188;DHT22;14708;50.872;5.306;2023-08-31T00:33:42;21.90;59.00
27188;DHT22;14708;50.872;5.306;2023-08-31T00:36:08;21.90;59.10
27188;DHT22;14708;50.872;5.306;2023-08-31T00:38:34;21.90;59.10
27188;DHT22;14708;50.872;5.306;2023-08-31T00:41:00;21.90;59.00
27188;DHT22;14708;50.872;5.306;2023-08-31T00:43:25;21.90;59.10
27188;DHT22;14708;50.872;5.306;2023-08-31T00:45:54;21.90;59.30
27188;DHT22;14708;50.872;5.306;2023-08-31T00:48:24;22.00;59.30
27188;DHT22;14708;50.872;5.306;2023-08-31T00:50:50;21.90;59.10
27188;DHT22;14708;50.872;5.306;2023-08-31T00:53:18;21.90;59.10
27188;DHT22;14708;50.872;5.306;2023-08-31T00:55:47;21.90;59.20
27188;DHT22;14708;50.872;5.306;2023-08-31T00:58:13;21.90;59.30
27188;DHT22;14708;50.872;5.306;2023-08-31T01:01:05;21.90;59.10
27188;DHT22;14708;50.872;5.306;2023-08-31T01:06:26;21.90;59.20
27188;DHT22;14708;50.872;5.306;2023-08-31T01:09:18;21.90;59.20
27188;DHT22;14708;50.872;5.306;2023-08-31T01:11:55;21.90;59.10
27188;DHT22;14708;50.872;5.306;2023-08-31T01:14:25;22.00;59.10
27188;DHT22;14708;50.872;5.306;2023-08-31T01:16:51;21.90;59.00
27188;DHT22;14708;50.872;5.306;2023-08-31T01:22:02;21.90;59.30
27188;DHT22;14708;50.872;5.306;2023-08-31T01:24:30;21.90;59.20
27188;DHT22;14708;50.872;5.306;2023-08-31T01:26:56;21.80;59.30
27188;DHT22;14708;50.872;5.306;2023-08-31T01:29:22;21.90;59.30
27188;DHT22;14708;50.872;5.306;2023-08-31T01:31:49;21.90;59.40
27188;DHT22;14708;50.872;5.306;2023-08-31T01:34:15;21.90;59.50
27188;DHT22;14708;50.872;5.306;2023-08-31T01:36:47;21.90;59.40
27188;DHT22;14708;50.872;5.306;2023-08-31T01:39:20;21.80;59.10
27188;DHT22;14708;50.872;5.306;2023-08-31T01:41:53;21.90;59.40
27188;DHT22;14708;50.872;5.306;2023-08-31T01:44:21;21.80;59.20
27188;DHT22;14708;50.872;5.306;2023-08-31T01:46:52;21.80;59.10
27188;DHT22;14708;50.872;5.306;2023-08-31T01:49:19;21.80;59.20
27188;DHT22;14708;50.872;5.306;2023-08-31T01:51:45;21.80;59.20
27188;DHT22;14708;50.872;5.306;2023-08-31T01:54:11;21.80;59.30
27188;DHT22;14708;50.872;5.306;2023-08-31T01:56:36;21.80;59.30
27188;DHT22;14708;50.872;5.306;2023-08-31T01:59:02;21.80;59.40
27188;DHT22;14708;50.872;5.306;2023-08-31T02:01:27;21.80;59.40
27188;DHT22;14708;50.872;5.306;2023-08-31T02:03:54;21.80;59.40
27188;DHT22;14708;50.872;5.306;2023-08-31T02:06:20;21.80;59.40
27188;DHT22;14708;50.872;5.306;2023-08-31T02:08:46;21.80;59.90
27188;DHT22;14708;50.872;5.306;2023-08-31T02:11:13;21.80;59.40
27188;DHT22;14708;50.872;5.306;2023-08-31T02:13:39;21.80;59.50
27188;DHT22;14708;50.872;5.306;2023-08-31T02:16:05;21.80;59.40
27188;DHT22;14708;50.872;5.306;2023-08-31T02:18:30;21.80;59.50
27188;DHT22;14708;50.872;5.306;2023-08-31T02:20:56;21.80;59.30
27188;DHT22;14708;50.872;5.306;2023-08-31T02:23:22;21.80;59.40
27188;DHT22;14708;50.872;5.306;2023-08-31T02:25:48;21.80;59.50
27188;DHT22;14708;50.872;5.306;2023-08-31T02:28:14;21.80;59.40
27188;DHT22;14708;50.872;5.306;2023-08-31T02:30:39;21.80;59.40
27188;DHT22;14708;50.872;5.306;2023-08-31T02:33:05;21.80;59.50
27188;DHT22;14708;50.872;5.306;2023-08-31T02:35:30;21.80;59.50
27188;DHT22;14708;50.872;5.306;2023-08-31T02:37:56;21.80;59.40
27188;DHT22;14708;50.872;5.306;2023-08-31T02:40:22;21.80;59.40
27188;DHT22;14708;50.872;5.306;2023-08-31T02:42:50;21.80;59.30
27188;DHT22;14708;50.872;5.306;2023-08-31T02:45:17;21.80;59.30
27188;DHT22;14708;50.872;5.306;2023-08-31T02:47:43;21.80;59.40
27188;DHT22;14708;50.872;5.306;2023-08-31T02:50:09;21.80;59.30
27188;DHT22;14708;50.872;5.306;2023-08-31T02:52:34;21.80;59.40
27188;DHT22;14708;50.872;5.306;2023-08-31T02:55:00;21.80;59.40
27188;DHT22;14708;50.872;5.306;2023-08-31T02:57:26;21.70;59.30
27188;DHT22;14708;50.872;5.306;2023-08-31T02:59:51;21.80;59.50
27188;DHT22;14708;50.872;5.306;2023-08-31T03:02:17;21.80;59.30
27188;DHT22;14708;50.872;5.306;2023-08-31T03:04:43;21.80;59.40
27188;DHT22;14708;50.872;5.306;2023-08-31T03:07:08;21.80;59.50
27188;DHT22;14708;50.872;5.306;2023-08-31T03:09:39;21.70;59.60
27188;DHT22;14708;50.872;5.306;2023-08-31T03:12:05;21.70;59.60
27188;DHT22;14708;50.872;5.306;2023-08-31T03:14:30;21.70;59.50
27188;DHT22;14708;50.872;5.306;2023-08-31T03:16:56;21.70;59.70
27188;DHT22;14708;50.872;5.306;2023-08-31T03:19:22;21.70;59.60
27188;DHT22;14708;50.872;5.306;2023-08-31T03:21:48;21.70;59.50
27188;DHT22;14708;50.872;5.306;2023-08-31T03:24:13;21.70;59.60
27188;DHT22;14708;50.872;5.306;2023-08-31T03:26:39;21.70;59.80
27188;DHT22;14708;50.872;5.306;2023-08-31T03:29:04;21.70;59.70
27188;DHT22;14708;50.872;5.306;2023-08-31T03:31:30;21.70;59.80
27188;DHT22;14708;50.872;5.306;2023-08-31T03:33:57;21.70;59.60
27188;DHT22;14708;50.872;5.306;2023-08-31T03:36:22;21.70;59.70
27188;DHT22;14708;50.872;5.306;2023-08-31T03:38:49;21.70;59.70
27188;DHT22;14708;50.872;5.306;2023-08-31T03:41:15;21.70;59.70
27188;DHT22;14708;50.872;5.306;2023-08-31T03:43:40;21.70;59.80
27188;DHT22;14708;50.872;5.306;2023-08-31T03:46:06;21.70;59.70
27188;DHT22;14708;50.872;5.306;2023-08-31T03:48:32;21.70;60.40
27188;DHT22;14708;50.872;5.306;2023-08-31T03:50:58;21.70;60.60
27188;DHT22;14708;50.872;5.306;2023-08-31T03:53:24;21.60;59.70
27188;DHT22;14708;50.872;5.306;2023-08-31T03:55:50;21.70;59.60
27188;DHT22;14708;50.872;5.306;2023-08-31T03:58:15;21.70;59.80
27188;DHT22;14708;50.872;5.306;2023-08-31T04:00:42;21.70;59.80
27188;DHT22;14708;50.872;5.306;2023-08-31T04:03:08;21.70;59.80
27188;DHT22;14708;50.872;5.306;2023-08-31T04:05:34;21.70;59.90
27188;DHT22;14708;50.872;5.306;2023-08-31T04:08:01;21.70;59.90
27188;DHT22;14708;50.872;5.306;2023-08-31T04:10:27;21.60;59.60
27188;DHT22;14708;50.872;5.306;2023-08-31T04:12:55;21.70;59.90
27188;DHT22;14708;50.872;5.306;2023-08-31T04:15:21;21.60;59.70
27188;DHT22;14708;50.872;5.306;2023-08-31T04:17:46;21.60;59.80
27188;DHT22;14708;50.872;5.306;2023-08-31T04:20:12;21.60;60.00
27188;DHT22;14708;50.872;5.306;2023-08-31T04:22:38;21.60;59.80
27188;DHT22;14708;50.872;5.306;2023-08-31T04:25:04;21.60;59.60
27188;DHT22;14708;50.872;5.306;2023-08-31T04:27:29;21.60;59.80
27188;DHT22;14708;50.872;5.306;2023-08-31T04:29:58;21.60;60.00
27188;DHT22;14708;50.872;5.306;2023-08-31T04:32:24;21.60;59.80
27188;DHT22;14708;50.872;5.306;2023-08-31T04:34:51;21.60;59.80
27188;DHT22;14708;50.872;5.306;2023-08-31T04:37:17;21.60;59.60
27188;DHT22;14708;50.872;5.306;2023-08-31T04:39:42;21.60;59.70
27188;DHT22;14708;50.872;5.306;2023-08-31T04:42:08;21.60;59.70
27188;DHT22;14708;50.872;5.306;2023-08-31T04:44:34;21.60;60.00
27188;DHT22;14708;50.872;5.306;2023-08-31T04:47:00;21.50;59.90
27188;DHT22;14708;50.872;5.306;2023-08-31T04:49:26;21.60;60.00
27188;DHT22;14708;50.872;5.306;2023-08-31T04:51:52;21.50;59.90
27188;DHT22;14708;50.872;5.306;2023-08-31T04:54:18;21.60;59.90
27188;DHT22;14708;50.872;5.306;2023-08-31T04:56:43;21.50;59.90
27188;DHT22;14708;50.872;5.306;2023-08-31T04:59:09;21.50;59.90
27188;DHT22;14708;50.872;5.306;2023-08-31T05:01:34;21.50;60.00
27188;DHT22;14708;50.872;5.306;2023-08-31T05:04:00;21.60;60.00
27188;DHT22;14708;50.872;5.306;2023-08-31T05:06:26;21.50;60.00
27188;DHT22;14708;50.872;5.306;2023-08-31T05:08:52;21.50;60.00
27188;DHT22;14708;50.872;5.306;2023-08-31T05:11:17;21.50;60.10
27188;DHT22;14708;50.872;5.306;2023-08-31T05:13:44;21.50;60.70
27188;DHT22;14708;50.872;5.306;2023-08-31T05:16:10;21.50;60.20
27188;DHT22;14708;50.872;5.306;2023-08-31T05:18:37;21.50;59.90
27188;DHT22;14708;50.872;5.306;2023-08-31T05:21:03;21.50;60.00
27188;DHT22;14708;50.872;5.306;2023-08-31T05:23:29;21.50;60.00
27188;DHT22;14708;50.872;5.306;2023-08-31T05:25:55;21.50;59.90
27188;DHT22;14708;50.872;5.306;2023-08-31T05:28:22;21.50;60.00
27188;DHT22;14708;50.872;5.306;2023-08-31T05:30:52;21.50;59.90
27188;DHT22;14708;50.872;5.306;2023-08-31T05:33:18;21.50;59.90
27188;DHT22;14708;50.872;5.306;2023-08-31T05:35:45;21.50;59.80
27188;DHT22;14708;50.872;5.306;2023-08-31T05:38:11;21.60;59.80
27188;DHT22;14708;50.872;5.306;2023-08-31T05:40:37;21.70;59.70
27188;DHT22;14708;50.872;5.306;2023-08-31T05:43:03;21.70;59.60
27188;DHT22;14708;50.872;5.306;2023-08-31T05:45:35;21.80;59.60
27188;DHT22;14708;50.872;5.306;2023-08-31T05:48:01;21.80;59.70
27188;DHT22;14708;50.872;5.306;2023-08-31T05:50:27;21.80;59.50
27188;DHT22;14708;50.872;5.306;2023-08-31T05:52:54;21.80;59.60
27188;DHT22;14708;50.872;5.306;2023-08-31T05:55:20;21.80;59.50
27188;DHT22;14708;50.872;5.306;2023-08-31T05:57:46;21.90;59.50
27188;DHT22;14708;50.872;5.306;2023-08-31T06:00:12;21.80;59.40
27188;DHT22;14708;50.872;5.306;2023-08-31T06:02:37;21.80;59.30
27188;DHT22;14708;50.872;5.306;2023-08-31T06:05:03;21.90;59.20
27188;DHT22;14708;50.872;5.306;2023-08-31T06:07:29;21.90;57.70
27188;DHT22;14708;50.872;5.306;2023-08-31T06:09:56;21.90;58.30
27188;DHT22;14708;50.872;5.306;2023-08-31T06:12:22;21.90;58.20
27188;DHT22;14708;50.872;5.306;2023-08-31T06:14:47;21.90;57.80
27188;DHT22;14708;50.872;5.306;2023-08-31T06:17:13;21.90;57.50
27188;DHT22;14708;50.872;5.306;2023-08-31T06:19:42;21.90;58.00
27188;DHT22;14708;50.872;5.306;2023-08-31T06:22:08;22.00;56.60
27188;DHT22;14708;50.872;5.306;2023-08-31T06:24:34;22.00;56.50
27188;DHT22;14708;50.872;5.306;2023-08-31T06:27:00;21.90;56.50
27188;DHT22;14708;50.872;5.306;2023-08-31T06:29:26;21.90;56.70
27188;DHT22;14708;50.872;5.306;2023-08-31T06:31:51;22.00;56.30
27188;DHT22;14708;50.872;5.306;2023-08-31T06:34:17;22.00;56.30
27188;DHT22;14708;50.872;5.306;2023-08-31T06:36:43;22.00;56.50
27188;DHT22;14708;50.872;5.306;2023-08-31T06:39:08;22.10;56.30
27188;DHT22;14708;50.872;5.306;2023-08-31T06:41:34;22.10;56.10
27188;DHT22;14708;50.872;5.306;2023-08-31T06:44:01;22.10;56.20
27188;DHT22;14708;50.872;5.306;2023-08-31T06:46:27;22.10;55.90
27188;DHT22;14708;50.872;5.306;2023-08-31T06:48:54;22.10;55.50
27188;DHT22;14708;50.872;5.306;2023-08-31T06:51:19;22.10;55.60
27188;DHT22;14708;50.872;5.306;2023-08-31T06:53:46;22.10;55.70
27188;DHT22;14708;50.872;5.306;2023-08-31T06:56:11;22.10;55.50
27188;DHT22;14708;50.872;5.306;2023-08-31T06:58:37;22.20;55.90
27188;DHT22;14708;50.872;5.306;2023-08-31T07:01:05;22.20;55.60
27188;DHT22;14708;50.872;5.306;2023-08-31T07:03:31;22.20;55.60
27188;DHT22;14708;50.872;5.306;2023-08-31T07:05:57;22.20;55.60
27188;DHT22;14708;50.872;5.306;2023-08-31T07:08:22;22.20;56.20
27188;DHT22;14708;50.872;5.306;2023-08-31T07:10:50;22.20;55.60
27188;DHT22;14708;50.872;5.306;2023-08-31T07:13:16;22.20;55.50
27188;DHT22;14708;50.872;5.306;2023-08-31T07:15:41;22.20;55.60
27188;DHT22;14708;50.872;5.306;2023-08-31T07:18:07;22.20;55.60
27188;DHT22;14708;50.872;5.306;2023-08-31T07:20:33;22.20;55.50
27188;DHT22;14708;50.872;5.306;2023-08-31T07:22:59;22.20;55.50
27188;DHT22;14708;50.872;5.306;2023-08-31T07:25:25;22.20;55.70
27188;DHT22;14708;50.872;5.306;2023-08-31T07:27:51;22.20;55.60
27188;DHT22;14708;50.872;5.306;2023-08-31T07:30:17;22.30;55.70
27188;DHT22;14708;50.872;5.306;2023-08-31T07:32:43;22.40;55.60
27188;DHT22;14708;50.872;5.306;2023-08-31T07:35:08;22.40;55.70
27188;DHT22;14708;50.872;5.306;2023-08-31T07:37:34;22.40;55.70
27188;DHT22;14708;50.872;5.306;2023-08-31T07:40:01;22.40;55.70
27188;DHT22;14708;50.872;5.306;2023-08-31T07:42:27;22.40;55.80
27188;DHT22;14708;50.872;5.306;2023-08-31T07:44:53;22.40;55.90
27188;DHT22;14708;50.872;5.306;2023-08-31T07:47:18;22.40;56.50
27188;DHT22;14708;50.872;5.306;2023-08-31T07:49:44;22.40;56.20
27188;DHT22;14708;50.872;5.306;2023-08-31T07:52:10;22.40;56.30
27188;DHT22;14708;50.872;5.306;2023-08-31T07:54:35;22.50;56.70
27188;DHT22;14708;50.872;5.306;2023-08-31T07:57:01;22.50;56.60
27188;DHT22;14708;50.872;5.306;2023-08-31T07:59:27;22.50;56.70
27188;DHT22;14708;50.872;5.306;2023-08-31T08:01:53;22.50;56.60
27188;DHT22;14708;50.872;5.306;2023-08-31T08:04:18;22.50;56.80
27188;DHT22;14708;50.872;5.306;2023-08-31T08:06:45;22.50;56.70
27188;DHT22;14708;50.872;5.306;2023-08-31T08:09:11;22.40;56.70
27188;DHT22;14708;50.872;5.306;2023-08-31T08:11:37;22.50;56.90
27188;DHT22;14708;50.872;5.306;2023-08-31T08:14:03;22.60;57.40
27188;DHT22;14708;50.872;5.306;2023-08-31T08:16:29;22.50;56.50
27188;DHT22;14708;50.872;5.306;2023-08-31T08:18:54;22.40;56.90
27188;DHT22;14708;50.872;5.306;2023-08-31T08:21:20;22.40;56.60
27188;DHT22;14708;50.872;5.306;2023-08-31T08:23:45;22.40;56.80
27188;DHT22;14708;50.872;5.306;2023-08-31T08:26:11;22.40;56.70
27188;DHT22;14708;50.872;5.306;2023-08-31T08:28:37;22.40;56.50
27188;DHT22;14708;50.872;5.306;2023-08-31T08:31:02;22.40;56.50
27188;DHT22;14708;50.872;5.306;2023-08-31T08:33:31;22.40;56.70
27188;DHT22;14708;50.872;5.306;2023-08-31T08:35:57;22.40;56.50
27188;DHT22;14708;50.872;5.306;2023-08-31T08:38:23;22.40;56.60
27188;DHT22;14708;50.872;5.306;2023-08-31T08:40:49;22.40;56.60
27188;DHT22;14708;50.872;5.306;2023-08-31T08:43:15;22.40;56.70
27188;DHT22;14708;50.872;5.306;2023-08-31T08:45:43;22.40;57.40
27188;DHT22;14708;50.872;5.306;2023-08-31T08:48:13;22.40;56.60
27188;DHT22;14708;50.872;5.306;2023-08-31T08:50:40;22.40;56.60
27188;DHT22;14708;50.872;5.306;2023-08-31T08:53:06;22.40;56.80
27188;DHT22;14708;50.872;5.306;2023-08-31T08:55:32;22.40;56.90
27188;DHT22;14708;50.872;5.306;2023-08-31T08:57:59;22.40;56.70
27188;DHT22;14708;50.872;5.306;2023-08-31T09:00:29;22.40;56.80
27188;DHT22;14708;50.872;5.306;2023-08-31T09:03:00;22.40;56.80
27188;DHT22;14708;50.872;5.306;2023-08-31T09:05:26;22.50;56.70
27188;DHT22;14708;50.872;5.306;2023-08-31T09:08:06;22.50;56.60
27188;DHT22;14708;50.872;5.306;2023-08-31T09:10:42;22.50;56.50
27188;DHT22;14708;50.872;5.306;2023-08-31T09:13:13;22.40;56.50
27188;DHT22;14708;50.872;5.306;2023-08-31T09:15:40;22.40;56.60
27188;DHT22;14708;50.872;5.306;2023-08-31T09:18:08;22.50;56.60
27188;DHT22;14708;50.872;5.306;2023-08-31T09:20:46;22.50;56.80
27188;DHT22;14708;50.872;5.306;2023-08-31T09:23:12;22.50;56.70
27188;DHT22;14708;50.872;5.306;2023-08-31T09:25:45;22.50;56.60
27188;DHT22;14708;50.872;5.306;2023-08-31T09:28:14;22.50;56.50
27188;DHT22;14708;50.872;5.306;2023-08-31T09:30:40;22.50;56.60
27188;DHT22;14708;50.872;5.306;2023-08-31T09:33:10;22.50;56.60
27188;DHT22;14708;50.872;5.306;2023-08-31T09:35:39;22.50;56.80
27188;DHT22;14708;50.872;5.306;2023-08-31T09:38:09;22.50;56.90
27188;DHT22;14708;50.872;5.306;2023-08-31T09:40:36;22.50;56.90
27188;DHT22;14708;50.872;5.306;2023-08-31T09:43:02;22.50;56.80
27188;DHT22;14708;50.872;5.306;2023-08-31T09:45:32;22.50;56.80
27188;DHT22;14708;50.872;5.306;2023-08-31T09:47:59;22.50;57.10
27188;DHT22;14708;50.872;5.306;2023-08-31T09:50:29;22.50;57.20
27188;DHT22;14708;50.872;5.306;2023-08-31T09:52:55;22.50;57.30
27188;DHT22;14708;50.872;5.306;2023-08-31T09:55:27;22.60;57.20
27188;DHT22;14708;50.872;5.306;2023-08-31T09:57:57;22.60;57.10
27188;DHT22;14708;50.872;5.306;2023-08-31T10:00:27;22.60;57.40
27188;DHT22;14708;50.872;5.306;2023-08-31T10:02:56;22.60;57.30
27188;DHT22;14708;50.872;5.306;2023-08-31T10:05:23;22.60;57.50
27188;DHT22;14708;50.872;5.306;2023-08-31T10:07:50;22.60;57.40
27188;DHT22;14708;50.872;5.306;2023-08-31T10:10:16;22.60;57.60
27188;DHT22;14708;50.872;5.306;2023-08-31T10:12:44;22.60;57.30
27188;DHT22;14708;50.872;5.306;2023-08-31T10:15:11;22.60;57.30
27188;DHT22;14708;50.872;5.306;2023-08-31T10:17:39;22.60;57.20
27188;DHT22;14708;50.872;5.306;2023-08-31T10:20:08;22.60;57.40
27188;DHT22;14708;50.872;5.306;2023-08-31T10:22:54;22.60;57.60
27188;DHT22;14708;50.872;5.306;2023-08-31T10:25:21;22.60;57.50
27188;DHT22;14708;50.872;5.306;2023-08-31T10:27:47;22.60;58.10
27188;DHT22;14708;50.872;5.306;2023-08-31T10:35:52;22.60;57.60
27188;DHT22;14708;50.872;5.306;2023-08-31T10:38:28;22.60;58.00
27188;DHT22;14708;50.872;5.306;2023-08-31T10:43:52;22.60;58.00
27188;DHT22;14708;50.872;5.306;2023-08-31T10:46:37;22.60;57.90
27188;DHT22;14708;50.872;5.306;2023-08-31T10:52:16;22.70;57.40
27188;DHT22;14708;50.872;5.306;2023-08-31T10:54:46;22.70;57.50
27188;DHT22;14708;50.872;5.306;2023-08-31T10:57:12;22.70;57.70
27188;DHT22;14708;50.872;5.306;2023-08-31T10:59:48;22.60;57.60
27188;DHT22;14708;50.872;5.306;2023-08-31T11:07:29;22.60;58.10
27188;DHT22;14708;50.872;5.306;2023-08-31T11:10:13;22.60;58.10
27188;DHT22;14708;50.872;5.306;2023-08-31T11:12:40;22.50;58.10
27188;DHT22;14708;50.872;5.306;2023-08-31T11:15:07;22.50;58.20
27188;DHT22;14708;50.872;5.306;2023-08-31T11:17:33;22.50;58.30
27188;DHT22;14708;50.872;5.306;2023-08-31T11:20:00;22.50;58.10
27188;DHT22;14708;50.872;5.306;2023-08-31T11:22:26;22.40;58.30
27188;DHT22;14708;50.872;5.306;2023-08-31T11:24:52;22.50;58.30
27188;DHT22;14708;50.872;5.306;2023-08-31T11:27:21;22.50;58.50
27188;DHT22;14708;50.872;5.306;2023-08-31T11:29:47;22.50;58.40
27188;DHT22;14708;50.872;5.306;2023-08-31T11:32:13;22.50;58.50
27188;DHT22;14708;50.872;5.306;2023-08-31T11:34:44;22.50;58.50
27188;DHT22;14708;50.872;5.306;2023-08-31T11:37:13;22.60;57.90
27188;DHT22;14708;50.872;5.306;2023-08-31T11:39:52;22.60;57.80
27188;DHT22;14708;50.872;5.306;2023-08-31T11:42:20;22.60;58.10
27188;DHT22;14708;50.872;5.306;2023-08-31T11:44:50;22.70;58.20
27188;DHT22;14708;50.872;5.306;2023-08-31T11:47:17;22.70;58.30
27188;DHT22;14708;50.872;5.306;2023-08-31T11:49:43;22.70;58.60
27188;DHT22;14708;50.872;5.306;2023-08-31T11:52:11;22.80;58.70
27188;DHT22;14708;50.872;5.306;2023-08-31T11:54:38;22.70;58.70
27188;DHT22;14708;50.872;5.306;2023-08-31T11:57:07;22.80;58.90
27188;DHT22;14708;50.872;5.306;2023-08-31T11:59:38;22.70;59.00
27188;DHT22;14708;50.872;5.306;2023-08-31T12:02:08;22.60;59.20
27188;DHT22;14708;50.872;5.306;2023-08-31T12:04:42;22.60;59.30
27188;DHT22;14708;50.872;5.306;2023-08-31T12:07:09;22.60;59.30
27188;DHT22;14708;50.872;5.306;2023-08-31T12:09:34;22.60;59.20
27188;DHT22;14708;50.872;5.306;2023-08-31T12:12:01;22.60;59.20
27188;DHT22;14708;50.872;5.306;2023-08-31T12:14:27;22.60;59.40
27188;DHT22;14708;50.872;5.306;2023-08-31T12:17:01;22.60;58.90
27188;DHT22;14708;50.872;5.306;2023-08-31T12:19:28;22.70;58.90
27188;DHT22;14708;50.872;5.306;2023-08-31T12:21:55;22.70;59.00
27188;DHT22;14708;50.872;5.306;2023-08-31T12:24:21;22.70;58.90
27188;DHT22;14708;50.872;5.306;2023-08-31T12:26:49;22.60;59.20
27188;DHT22;14708;50.872;5.306;2023-08-31T12:29:14;22.60;58.90
27188;DHT22;14708;50.872;5.306;2023-08-31T12:31:40;22.70;58.40
27188;DHT22;14708;50.872;5.306;2023-08-31T12:34:06;22.70;58.70
27188;DHT22;14708;50.872;5.306;2023-08-31T12:36:33;22.70;58.50
27188;DHT22;14708;50.872;5.306;2023-08-31T12:38:59;22.80;58.60
27188;DHT22;14708;50.872;5.306;2023-08-31T12:41:31;22.70;58.60
27188;DHT22;14708;50.872;5.306;2023-08-31T12:43:56;22.70;59.20
27188;DHT22;14708;50.872;5.306;2023-08-31T12:46:23;22.70;58.60
27188;DHT22;14708;50.872;5.306;2023-08-31T12:48:49;22.60;58.80
27188;DHT22;14708;50.872;5.306;2023-08-31T12:51:16;22.60;58.70
27188;DHT22;14708;50.872;5.306;2023-08-31T12:53:41;22.70;58.10
27188;DHT22;14708;50.872;5.306;2023-08-31T12:56:07;22.70;58.20
27188;DHT22;14708;50.872;5.306;2023-08-31T12:58:32;22.60;58.40
27188;DHT22;14708;50.872;5.306;2023-08-31T13:00:58;22.60;58.20
27188;DHT22;14708;50.872;5.306;2023-08-31T13:03:25;22.70;57.90
27188;DHT22;14708;50.872;5.306;2023-08-31T13:05:50;22.70;57.90
27188;DHT22;14708;50.872;5.306;2023-08-31T13:08:16;22.60;58.20
27188;DHT22;14708;50.872;5.306;2023-08-31T13:10:42;22.60;58.20
27188;DHT22;14708;50.872;5.306;2023-08-31T13:13:09;22.60;58.30
27188;DHT22;14708;50.872;5.306;2023-08-31T13:15:35;22.60;58.30
27188;DHT22;14708;50.872;5.306;2023-08-31T13:18:00;22.60;58.40
27188;DHT22;14708;50.872;5.306;2023-08-31T13:20:26;22.60;58.40
27188;DHT22;14708;50.872;5.306;2023-08-31T13:22:53;22.60;58.40
27188;DHT22;14708;50.872;5.306;2023-08-31T13:25:18;22.60;58.40
27188;DHT22;14708;50.872;5.306;2023-08-31T13:27:44;22.60;58.40
27188;DHT22;14708;50.872;5.306;2023-08-31T13:30:10;22.60;58.60
27188;DHT22;14708;50.872;5.306;2023-08-31T13:32:38;22.60;58.60
27188;DHT22;14708;50.872;5.306;2023-08-31T13:35:04;22.60;58.80
27188;DHT22;14708;50.872;5.306;2023-08-31T13:37:33;22.60;58.80
27188;DHT22;14708;50.872;5.306;2023-08-31T13:39:59;22.60;58.60
27188;DHT22;14708;50.872;5.306;2023-08-31T13:42:26;22.70;58.50
27188;DHT22;14708;50.872;5.306;2023-08-31T13:44:51;22.70;58.60
27188;DHT22;14708;50.872;5.306;2023-08-31T13:47:17;22.80;59.30
27188;DHT22;14708;50.872;5.306;2023-08-31T13:49:43;22.80;58.80
27188;DHT22;14708;50.872;5.306;2023-08-31T13:52:08;22.90;59.20
27188;DHT22;14708;50.872;5.306;2023-08-31T13:54:36;22.90;58.70
27188;DHT22;14708;50.872;5.306;2023-08-31T13:57:01;22.80;59.20
27188;DHT22;14708;50.872;5.306;2023-08-31T13:59:27;22.80;59.50
27188;DHT22;14708;50.872;5.306;2023-08-31T14:01:53;22.80;59.40
27188;DHT22;14708;50.872;5.306;2023-08-31T14:04:19;22.80;59.60
27188;DHT22;14708;50.872;5.306;2023-08-31T14:06:45;22.90;59.70
27188;DHT22;14708;50.872;5.306;2023-08-31T14:09:11;22.90;60.00
27188;DHT22;14708;50.872;5.306;2023-08-31T14:11:37;23.00;59.80
27188;DHT22;14708;50.872;5.306;2023-08-31T14:14:06;23.10;59.70
27188;DHT22;14708;50.872;5.306;2023-08-31T14:16:35;23.10;59.70
27188;DHT22;14708;50.872;5.306;2023-08-31T14:19:03;23.00;59.80
27188;DHT22;14708;50.872;5.306;2023-08-31T14:21:29;23.00;59.80
27188;DHT22;14708;50.872;5.306;2023-08-31T14:23:54;22.90;60.30
27188;DHT22;14708;50.872;5.306;2023-08-31T14:26:22;22.90;60.30
27188;DHT22;14708;50.872;5.306;2023-08-31T14:28:49;22.80;60.80
27188;DHT22;14708;50.872;5.306;2023-08-31T14:31:15;22.90;60.60
27188;DHT22;14708;50.872;5.306;2023-08-31T14:33:41;22.80;60.70
27188;DHT22;14708;50.872;5.306;2023-08-31T14:36:06;22.90;59.10
27188;DHT22;14708;50.872;5.306;2023-08-31T14:38:32;23.00;59.90
27188;DHT22;14708;50.872;5.306;2023-08-31T14:40:58;23.00;59.80
27188;DHT22;14708;50.872;5.306;2023-08-31T14:43:23;23.00;59.30
27188;DHT22;14708;50.872;5.306;2023-08-31T14:45:49;22.90;59.80
27188;DHT22;14708;50.872;5.306;2023-08-31T14:48:15;22.90;59.80
27188;DHT22;14708;50.872;5.306;2023-08-31T14:50:43;22.90;59.80
27188;DHT22;14708;50.872;5.306;2023-08-31T14:53:09;22.80;59.90
27188;DHT22;14708;50.872;5.306;2023-08-31T14:55:36;22.90;59.70
27188;DHT22;14708;50.872;5.306;2023-08-31T14:58:01;22.90;59.70
27188;DHT22;14708;50.872;5.306;2023-08-31T15:00:27;22.90;59.90
27188;DHT22;14708;50.872;5.306;2023-08-31T15:02:54;22.90;59.80
27188;DHT22;14708;50.872;5.306;2023-08-31T15:05:19;23.00;59.40
27188;DHT22;14708;50.872;5.306;2023-08-31T15:07:45;23.10;59.20
27188;DHT22;14708;50.872;5.306;2023-08-31T15:10:11;23.20;58.80
27188;DHT22;14708;50.872;5.306;2023-08-31T15:12:36;23.30;58.90
27188;DHT22;14708;50.872;5.306;2023-08-31T15:15:04;23.30;58.70
27188;DHT22;14708;50.872;5.306;2023-08-31T15:17:31;23.30;58.90
27188;DHT22;14708;50.872;5.306;2023-08-31T15:19:56;23.30;58.90
27188;DHT22;14708;50.872;5.306;2023-08-31T15:22:22;23.20;59.20
27188;DHT22;14708;50.872;5.306;2023-08-31T15:24:51;23.00;59.30
27188;DHT22;14708;50.872;5.306;2023-08-31T15:27:17;23.00;59.10
27188;DHT22;14708;50.872;5.306;2023-08-31T15:29:43;23.00;59.20
27188;DHT22;14708;50.872;5.306;2023-08-31T15:32:10;23.10;59.40
27188;DHT22;14708;50.872;5.306;2023-08-31T15:34:35;23.20;59.40
27188;DHT22;14708;50.872;5.306;2023-08-31T15:37:01;23.20;59.20
27188;DHT22;14708;50.872;5.306;2023-08-31T15:39:28;23.20;59.00
27188;DHT22;14708;50.872;5.306;2023-08-31T15:41:53;23.30;58.80
27188;DHT22;14708;50.872;5.306;2023-08-31T15:44:19;23.30;58.80
27188;DHT22;14708;50.872;5.306;2023-08-31T15:46:45;23.30;58.50
27188;DHT22;14708;50.872;5.306;2023-08-31T15:49:11;23.30;58.70
27188;DHT22;14708;50.872;5.306;2023-08-31T15:51:36;23.30;58.70